Fortuna, Spain
Current Conditions -  °F | °C
As of 5:30 PM on Friday 24 Oct 2014 (Local Time) from LEAL Reporting Station
Clear Clear  
Wind Chill: 77°   Ceiling: Unl
Heat Index: 78°   Visibility: 6mi
Dew Point: 48°   Wind: 7mph
Humidity: 36%   Direction: 100°E
Pressure: 30"   Gusts: NA
Location:  38.18°N, 1.13°W
Report Text: LEAL 241530Z 10006KT 060V120 CAVOK 25/09 Q1016 NOSIG
Loading
Personal Weather Stations






























Interactive Weather Map
Tropical Storm Tracking
New forecast layout! Learn more

10-Day Weather Forecast

Advertisements
Track Severe Weather on mobile